SKU1650 SCEL-SCSE
Flight info
| Callsign | SKU1650 |
|---|---|
| Flight time | 0h 46m |
| Altitude | 34000 |
| Route | DONTI5B DONTI UL780 BUXIS/N0408F240 V200 DANLA DANLA4A |
| Aircraft | A319/M-SDE3FGHIRWY/LB1 |
Departure
| Time | 2026-04-20 03:19 |
|---|---|
| Airport | Comodoro Arturo Merino Benítez International Airport (SCEL) |
Arrival
| Time | 2026-04-20 04:05 |
|---|---|
| Airport | La Florida Airport (SCSE) |
| Time | Latitude | Longitude | Altitude | Speed | Heading |
|---|---|---|---|---|---|
| 2026-04-20 02:51 | -33.39613 | -70.79804 | 1565 ft | 0 kts | 176° |
| 2026-04-20 03:05 | -33.39604 | -70.79805 | 1570 ft | 3 kts | 176° |
| 2026-04-20 03:06 | -33.39585 | -70.79806 | 1565 ft | 3 kts | 176° |
| 2026-04-20 03:06 | -33.39567 | -70.79808 | 1565 ft | 3 kts | 176° |
| 2026-04-20 03:06 | -33.39548 | -70.79813 | 1565 ft | 3 kts | 139° |
| 2026-04-20 03:06 | -33.39537 | -70.79832 | 1565 ft | 3 kts | 94° |
| 2026-04-20 03:07 | -33.39536 | -70.79848 | 1565 ft | 0 kts | 90° |
| 2026-04-20 03:09 | -33.39536 | -70.79847 | 1565 ft | 0 kts | 90° |
| 2026-04-20 03:09 | -33.39535 | -70.79836 | 1565 ft | 3 kts | 84° |
| 2026-04-20 03:09 | -33.39532 | -70.79797 | 1565 ft | 6 kts | 85° |
| 2026-04-20 03:10 | -33.39525 | -70.79732 | 1565 ft | 10 kts | 83° |
| 2026-04-20 03:10 | -33.39519 | -70.79643 | 1564 ft | 11 kts | 88° |
| 2026-04-20 03:10 | -33.39516 | -70.79563 | 1564 ft | 9 kts | 87° |
| 2026-04-20 03:10 | -33.39513 | -70.79469 | 1564 ft | 14 kts | 88° |
| 2026-04-20 03:11 | -33.39505 | -70.79339 | 1564 ft | 16 kts | 86° |
| 2026-04-20 03:11 | -33.39499 | -70.79213 | 1564 ft | 14 kts | 86° |
| 2026-04-20 03:11 | -33.39495 | -70.79112 | 1564 ft | 11 kts | 87° |
| 2026-04-20 03:11 | -33.39495 | -70.79026 | 1564 ft | 9 kts | 91° |
| 2026-04-20 03:12 | -33.39495 | -70.78961 | 1564 ft | 7 kts | 88° |
| 2026-04-20 03:12 | -33.39490 | -70.78914 | 1564 ft | 5 kts | 75° |
| 2026-04-20 03:12 | -33.39461 | -70.78873 | 1564 ft | 8 kts | 33° |
| 2026-04-20 03:12 | -33.39402 | -70.78834 | 1564 ft | 11 kts | 29° |
| 2026-04-20 03:13 | -33.39320 | -70.78795 | 1564 ft | 13 kts | 4° |
| 2026-04-20 03:13 | -33.39269 | -70.78798 | 1564 ft | 6 kts | 358° |
| 2026-04-20 03:13 | -33.39228 | -70.78799 | 1564 ft | 7 kts | 358° |
| 2026-04-20 03:13 | -33.39165 | -70.78802 | 1564 ft | 11 kts | 358° |
| 2026-04-20 03:14 | -33.39080 | -70.78809 | 1564 ft | 14 kts | 356° |
| 2026-04-20 03:14 | -33.38975 | -70.78815 | 1564 ft | 17 kts | 358° |
| 2026-04-20 03:14 | -33.38850 | -70.78820 | 1564 ft | 19 kts | 358° |
| 2026-04-20 03:14 | -33.38716 | -70.78827 | 1564 ft | 19 kts | 357° |
| 2026-04-20 03:15 | -33.38585 | -70.78835 | 1564 ft | 19 kts | 357° |
| 2026-04-20 03:15 | -33.38451 | -70.78841 | 1564 ft | 19 kts | 358° |
| 2026-04-20 03:15 | -33.38323 | -70.78846 | 1564 ft | 18 kts | 358° |
| 2026-04-20 03:15 | -33.38194 | -70.78850 | 1564 ft | 18 kts | 357° |
| 2026-04-20 03:16 | -33.38069 | -70.78857 | 1564 ft | 18 kts | 356° |
| 2026-04-20 03:16 | -33.37945 | -70.78868 | 1565 ft | 18 kts | 356° |
| 2026-04-20 03:16 | -33.37821 | -70.78876 | 1564 ft | 18 kts | 357° |
| 2026-04-20 03:16 | -33.37701 | -70.78882 | 1564 ft | 12 kts | 358° |
| 2026-04-20 03:17 | -33.37637 | -70.78855 | 1564 ft | 10 kts | 52° |
| 2026-04-20 03:17 | -33.37624 | -70.78774 | 1564 ft | 10 kts | 87° |
| 2026-04-20 03:17 | -33.37621 | -70.78701 | 1564 ft | 6 kts | 87° |
| 2026-04-20 03:17 | -33.37645 | -70.78671 | 1565 ft | 5 kts | 162° |
| 2026-04-20 03:18 | -33.37749 | -70.78664 | 1565 ft | 41 kts | 177° |
| 2026-04-20 03:18 | -33.38284 | -70.78632 | 1564 ft | 110 kts | 177° |
| 2026-04-20 03:18 | -33.39261 | -70.78579 | 1569 ft | 163 kts | 176° |
| 2026-04-20 03:18 | -33.40378 | -70.78525 | 2111 ft | 165 kts | 176° |
| 2026-04-20 03:19 | -33.41540 | -70.78456 | 2708 ft | 171 kts | 177° |
| 2026-04-20 03:19 | -33.42757 | -70.78389 | 3342 ft | 173 kts | 178° |
| 2026-04-20 03:19 | -33.44004 | -70.78315 | 3997 ft | 173 kts | 178° |
| 2026-04-20 03:19 | -33.44818 | -70.78400 | 4294 ft | 182 kts | 198° |
| 2026-04-20 03:20 | -33.45819 | -70.79509 | 4522 ft | 207 kts | 247° |
| 2026-04-20 03:20 | -33.46077 | -70.81147 | 4769 ft | 231 kts | 264° |
| 2026-04-20 03:20 | -33.46228 | -70.83314 | 5211 ft | 257 kts | 266° |
| 2026-04-20 03:20 | -33.46368 | -70.85579 | 5900 ft | 270 kts | 267° |
| 2026-04-20 03:21 | -33.46514 | -70.87907 | 6792 ft | 275 kts | 267° |
| 2026-04-20 03:21 | -33.46654 | -70.90091 | 7649 ft | 277 kts | 268° |
| 2026-04-20 03:21 | -33.46810 | -70.92417 | 8608 ft | 279 kts | 269° |
| 2026-04-20 03:21 | -33.46970 | -70.94738 | 9549 ft | 280 kts | 270° |
| 2026-04-20 03:22 | -33.46902 | -70.97046 | 10347 ft | 275 kts | 291° |
| 2026-04-20 03:22 | -33.45887 | -70.98907 | 11120 ft | 269 kts | 323° |
| 2026-04-20 03:22 | -33.44194 | -70.99895 | 11706 ft | 281 kts | 340° |
| 2026-04-20 03:22 | -33.42288 | -71.00668 | 11983 ft | 302 kts | 341° |
| 2026-04-20 03:23 | -33.40229 | -71.01445 | 12618 ft | 309 kts | 342° |
| 2026-04-20 03:23 | -33.38164 | -71.02216 | 13382 ft | 312 kts | 341° |
| 2026-04-20 03:23 | -33.36091 | -71.02997 | 14152 ft | 314 kts | 341° |
| 2026-04-20 03:23 | -33.33999 | -71.03794 | 14761 ft | 317 kts | 340° |
| 2026-04-20 03:24 | -33.31890 | -71.04611 | 15438 ft | 320 kts | 340° |
| 2026-04-20 03:24 | -33.29767 | -71.05436 | 16149 ft | 322 kts | 339° |
| 2026-04-20 03:24 | -33.27626 | -71.06273 | 16850 ft | 324 kts | 339° |
| 2026-04-20 03:24 | -33.25471 | -71.07119 | 17462 ft | 328 kts | 339° |
| 2026-04-20 03:25 | -33.23288 | -71.07975 | 18055 ft | 331 kts | 338° |
| 2026-04-20 03:25 | -33.21120 | -71.08827 | 18660 ft | 334 kts | 338° |
| 2026-04-20 03:25 | -33.18846 | -71.09719 | 19278 ft | 336 kts | 338° |
| 2026-04-20 03:25 | -33.16665 | -71.10572 | 19852 ft | 339 kts | 338° |
| 2026-04-20 03:26 | -33.14412 | -71.11451 | 20432 ft | 341 kts | 337° |
| 2026-04-20 03:26 | -33.12097 | -71.12353 | 20963 ft | 343 kts | 338° |
| 2026-04-20 03:26 | -33.09863 | -71.13221 | 21501 ft | 346 kts | 338° |
| 2026-04-20 03:26 | -33.07560 | -71.14116 | 22045 ft | 349 kts | 337° |
| 2026-04-20 03:27 | -33.05220 | -71.15025 | 22605 ft | 351 kts | 336° |
| 2026-04-20 03:27 | -33.02918 | -71.15920 | 23153 ft | 354 kts | 336° |
| 2026-04-20 03:27 | -33.00568 | -71.16834 | 23685 ft | 356 kts | 336° |
| 2026-04-20 03:27 | -32.98172 | -71.17763 | 24134 ft | 359 kts | 336° |
| 2026-04-20 03:28 | -32.95822 | -71.18673 | 24561 ft | 361 kts | 336° |
| 2026-04-20 03:28 | -32.93409 | -71.19630 | 25016 ft | 361 kts | 335° |
| 2026-04-20 03:28 | -32.88712 | -71.21676 | 25903 ft | 362 kts | 333° |
| 2026-04-20 03:29 | -32.86356 | -71.22742 | 26324 ft | 364 kts | 333° |
| 2026-04-20 03:29 | -32.83951 | -71.23829 | 26753 ft | 365 kts | 333° |
| 2026-04-20 03:29 | -32.81595 | -71.24882 | 27170 ft | 367 kts | 333° |
| 2026-04-20 03:29 | -32.79164 | -71.25958 | 27539 ft | 369 kts | 333° |
| 2026-04-20 03:30 | -32.76752 | -71.27018 | 27920 ft | 370 kts | 333° |
| 2026-04-20 03:30 | -32.74334 | -71.28074 | 28317 ft | 372 kts | 333° |
| 2026-04-20 03:30 | -32.71894 | -71.29140 | 28693 ft | 374 kts | 333° |
| 2026-04-20 03:30 | -32.69481 | -71.30194 | 29098 ft | 375 kts | 333° |
| 2026-04-20 03:31 | -32.66995 | -71.31281 | 29504 ft | 376 kts | 333° |
| 2026-04-20 03:31 | -32.64517 | -71.32365 | 29893 ft | 378 kts | 333° |
| 2026-04-20 03:31 | -32.62058 | -71.33441 | 30234 ft | 379 kts | 333° |
| 2026-04-20 03:31 | -32.59577 | -71.34527 | 30514 ft | 381 kts | 333° |
| 2026-04-20 03:32 | -32.57082 | -71.35617 | 30800 ft | 383 kts | 333° |
| 2026-04-20 03:32 | -32.54582 | -71.36712 | 31070 ft | 384 kts | 333° |
| 2026-04-20 03:32 | -32.52060 | -71.37815 | 31348 ft | 386 kts | 333° |
| 2026-04-20 03:32 | -32.49536 | -71.38913 | 31679 ft | 386 kts | 333° |
| 2026-04-20 03:33 | -32.47020 | -71.40002 | 32091 ft | 384 kts | 333° |
| 2026-04-20 03:33 | -32.44514 | -71.41086 | 32500 ft | 383 kts | 333° |
| 2026-04-20 03:33 | -32.42014 | -71.42168 | 32926 ft | 381 kts | 333° |
| 2026-04-20 03:33 | -32.39530 | -71.43245 | 33347 ft | 379 kts | 333° |
| 2026-04-20 03:34 | -32.36928 | -71.44379 | 33774 ft | 377 kts | 333° |
| 2026-04-20 03:34 | -32.34335 | -71.45510 | 34057 ft | 377 kts | 333° |
| 2026-04-20 03:34 | -32.29507 | -71.47605 | 34101 ft | 364 kts | 333° |
| 2026-04-20 03:35 | -32.24577 | -71.49121 | 34100 ft | 377 kts | 347° |
| 2026-04-20 03:35 | -32.19291 | -71.49118 | 34099 ft | 382 kts | 351° |
| 2026-04-20 03:36 | -32.13935 | -71.49058 | 34102 ft | 383 kts | 351° |
| 2026-04-20 03:36 | -32.09474 | -71.49015 | 34093 ft | 382 kts | 351° |
| 2026-04-20 03:37 | -32.04162 | -71.48967 | 34089 ft | 382 kts | 351° |
| 2026-04-20 03:37 | -31.98840 | -71.48912 | 34079 ft | 382 kts | 351° |
| 2026-04-20 03:38 | -31.93493 | -71.48860 | 34075 ft | 382 kts | 351° |
| 2026-04-20 03:38 | -31.88172 | -71.48811 | 34077 ft | 382 kts | 351° |
| 2026-04-20 03:39 | -31.82816 | -71.48765 | 34070 ft | 382 kts | 351° |
| 2026-04-20 03:39 | -31.77500 | -71.48719 | 34075 ft | 383 kts | 351° |
| 2026-04-20 03:40 | -31.72153 | -71.48669 | 34074 ft | 383 kts | 351° |
| 2026-04-20 03:40 | -31.66758 | -71.48617 | 34072 ft | 384 kts | 351° |
| 2026-04-20 03:41 | -31.61413 | -71.48566 | 34021 ft | 385 kts | 351° |
| 2026-04-20 03:41 | -31.58695 | -71.48541 | 33737 ft | 385 kts | 351° |
| 2026-04-20 03:41 | -31.56010 | -71.48517 | 33464 ft | 386 kts | 351° |
| 2026-04-20 03:42 | -31.53319 | -71.48492 | 33201 ft | 387 kts | 351° |
| 2026-04-20 03:42 | -31.50634 | -71.48468 | 32936 ft | 386 kts | 351° |
| 2026-04-20 03:42 | -31.47944 | -71.48442 | 32672 ft | 385 kts | 351° |
| 2026-04-20 03:42 | -31.45287 | -71.48412 | 32279 ft | 379 kts | 351° |
| 2026-04-20 03:43 | -31.42665 | -71.48383 | 31812 ft | 375 kts | 351° |
| 2026-04-20 03:43 | -31.40073 | -71.48357 | 31343 ft | 370 kts | 351° |
| 2026-04-20 03:43 | -31.37504 | -71.48334 | 30886 ft | 367 kts | 351° |
| 2026-04-20 03:43 | -31.34966 | -71.48312 | 30440 ft | 364 kts | 351° |
| 2026-04-20 03:44 | -31.32444 | -71.48289 | 29970 ft | 361 kts | 351° |
| 2026-04-20 03:44 | -31.29946 | -71.48267 | 29507 ft | 357 kts | 351° |
| 2026-04-20 03:44 | -31.27434 | -71.48245 | 29069 ft | 354 kts | 351° |
| 2026-04-20 03:44 | -31.25011 | -71.48220 | 28646 ft | 350 kts | 351° |
| 2026-04-20 03:45 | -31.22580 | -71.48196 | 28225 ft | 347 kts | 351° |
| 2026-04-20 03:45 | -31.20175 | -71.48176 | 27818 ft | 344 kts | 351° |
| 2026-04-20 03:45 | -31.17785 | -71.48157 | 27410 ft | 341 kts | 351° |
| 2026-04-20 03:45 | -31.15421 | -71.48139 | 27018 ft | 338 kts | 352° |
| 2026-04-20 03:46 | -31.13076 | -71.48118 | 26633 ft | 336 kts | 352° |
| 2026-04-20 03:46 | -31.10747 | -71.48094 | 26246 ft | 333 kts | 352° |
| 2026-04-20 03:46 | -31.08447 | -71.48069 | 25879 ft | 330 kts | 352° |
| 2026-04-20 03:46 | -31.06126 | -71.48047 | 25500 ft | 328 kts | 352° |
| 2026-04-20 03:47 | -31.03878 | -71.48028 | 25137 ft | 327 kts | 352° |
| 2026-04-20 03:47 | -31.01606 | -71.48012 | 24762 ft | 325 kts | 352° |
| 2026-04-20 03:47 | -30.99343 | -71.47995 | 24388 ft | 324 kts | 352° |
| 2026-04-20 03:47 | -30.97092 | -71.47977 | 24008 ft | 323 kts | 353° |
| 2026-04-20 03:48 | -30.94848 | -71.47959 | 23620 ft | 322 kts | 353° |
| 2026-04-20 03:48 | -30.92583 | -71.47939 | 23189 ft | 320 kts | 353° |
| 2026-04-20 03:48 | -30.90404 | -71.47920 | 22810 ft | 318 kts | 353° |
| 2026-04-20 03:48 | -30.88185 | -71.47899 | 22421 ft | 317 kts | 353° |
| 2026-04-20 03:49 | -30.85956 | -71.47876 | 22036 ft | 315 kts | 353° |
| 2026-04-20 03:49 | -30.83770 | -71.47855 | 21659 ft | 313 kts | 353° |
| 2026-04-20 03:49 | -30.81596 | -71.47836 | 21272 ft | 311 kts | 354° |
| 2026-04-20 03:49 | -30.79430 | -71.47814 | 20889 ft | 310 kts | 354° |
| 2026-04-20 03:50 | -30.77271 | -71.47794 | 20505 ft | 309 kts | 354° |
| 2026-04-20 03:50 | -30.75121 | -71.47775 | 20120 ft | 308 kts | 354° |
| 2026-04-20 03:50 | -30.73183 | -71.47759 | 19777 ft | 307 kts | 354° |
| 2026-04-20 03:50 | -30.71039 | -71.47741 | 19397 ft | 306 kts | 355° |
| 2026-04-20 03:51 | -30.68918 | -71.47722 | 19023 ft | 305 kts | 355° |
| 2026-04-20 03:51 | -30.66768 | -71.47703 | 18643 ft | 304 kts | 355° |
| 2026-04-20 03:51 | -30.64659 | -71.47685 | 18252 ft | 303 kts | 355° |
| 2026-04-20 03:51 | -30.62553 | -71.47666 | 17855 ft | 301 kts | 355° |
| 2026-04-20 03:52 | -30.60437 | -71.47646 | 17485 ft | 299 kts | 355° |
| 2026-04-20 03:52 | -30.58362 | -71.47628 | 17123 ft | 297 kts | 356° |
| 2026-04-20 03:52 | -30.56327 | -71.47609 | 16771 ft | 295 kts | 356° |
| 2026-04-20 03:52 | -30.54245 | -71.47591 | 16412 ft | 294 kts | 356° |
| 2026-04-20 03:53 | -30.52201 | -71.47527 | 16035 ft | 296 kts | 1° |
| 2026-04-20 03:53 | -30.50153 | -71.47276 | 15644 ft | 296 kts | 2° |
| 2026-04-20 03:53 | -30.48099 | -71.47020 | 15251 ft | 296 kts | 2° |
| 2026-04-20 03:53 | -30.46049 | -71.46764 | 14860 ft | 296 kts | 2° |
| 2026-04-20 03:54 | -30.43970 | -71.46508 | 14464 ft | 297 kts | 2° |
| 2026-04-20 03:54 | -30.41914 | -71.46255 | 14069 ft | 297 kts | 3° |
| 2026-04-20 03:54 | -30.39850 | -71.46002 | 13650 ft | 298 kts | 3° |
| 2026-04-20 03:54 | -30.37793 | -71.45751 | 13232 ft | 297 kts | 3° |
| 2026-04-20 03:55 | -30.35739 | -71.45501 | 12820 ft | 296 kts | 4° |
| 2026-04-20 03:55 | -30.33693 | -71.45253 | 12420 ft | 295 kts | 4° |
| 2026-04-20 03:55 | -30.31650 | -71.45005 | 12015 ft | 294 kts | 4° |
| 2026-04-20 03:55 | -30.29609 | -71.44754 | 11604 ft | 294 kts | 4° |
| 2026-04-20 03:56 | -30.27576 | -71.44506 | 11185 ft | 293 kts | 4° |
| 2026-04-20 03:56 | -30.25535 | -71.44259 | 10739 ft | 294 kts | 4° |
| 2026-04-20 03:56 | -30.24117 | -71.44088 | 10427 ft | 295 kts | 5° |
| 2026-04-20 03:56 | -30.22029 | -71.43831 | 10153 ft | 289 kts | 5° |
| 2026-04-20 03:57 | -30.20045 | -71.43587 | 10010 ft | 279 kts | 5° |
| 2026-04-20 03:57 | -30.18111 | -71.43351 | 9684 ft | 276 kts | 5° |
| 2026-04-20 03:57 | -30.16173 | -71.43116 | 9200 ft | 278 kts | 5° |
| 2026-04-20 03:57 | -30.14265 | -71.42883 | 8774 ft | 275 kts | 5° |
| 2026-04-20 03:58 | -30.12357 | -71.42651 | 8230 ft | 275 kts | 5° |
| 2026-04-20 03:58 | -30.10456 | -71.42421 | 7680 ft | 274 kts | 5° |
| 2026-04-20 03:58 | -30.08557 | -71.42190 | 7156 ft | 274 kts | 5° |
| 2026-04-20 03:58 | -30.06640 | -71.41958 | 6631 ft | 273 kts | 5° |
| 2026-04-20 03:59 | -30.04766 | -71.41729 | 6009 ft | 274 kts | 5° |
| 2026-04-20 03:59 | -30.02872 | -71.41498 | 5413 ft | 271 kts | 5° |
| 2026-04-20 03:59 | -30.01031 | -71.41273 | 5202 ft | 254 kts | 6° |
| 2026-04-20 03:59 | -29.99333 | -71.41064 | 5079 ft | 237 kts | 6° |
| 2026-04-20 04:00 | -29.97762 | -71.40646 | 4970 ft | 227 kts | 17° |
| 2026-04-20 04:00 | -29.96295 | -71.40111 | 4867 ft | 216 kts | 17° |
| 2026-04-20 04:00 | -29.94886 | -71.39604 | 4784 ft | 205 kts | 17° |
| 2026-04-20 04:00 | -29.93562 | -71.39128 | 4676 ft | 193 kts | 17° |
| 2026-04-20 04:01 | -29.92291 | -71.38672 | 4452 ft | 189 kts | 17° |
| 2026-04-20 04:01 | -29.91032 | -71.38221 | 4171 ft | 189 kts | 17° |
| 2026-04-20 04:01 | -29.89741 | -71.37711 | 3895 ft | 188 kts | 25° |
| 2026-04-20 04:01 | -29.88650 | -71.36926 | 3630 ft | 188 kts | 40° |
| 2026-04-20 04:02 | -29.87764 | -71.35832 | 3368 ft | 186 kts | 55° |
| 2026-04-20 04:02 | -29.87153 | -71.34520 | 3109 ft | 185 kts | 70° |
| 2026-04-20 04:02 | -29.86859 | -71.33088 | 2841 ft | 183 kts | 85° |
| 2026-04-20 04:02 | -29.86890 | -71.31630 | 2586 ft | 182 kts | 99° |
| 2026-04-20 04:03 | -29.87226 | -71.30254 | 2335 ft | 174 kts | 113° |
| 2026-04-20 04:03 | -29.87735 | -71.29056 | 2095 ft | 157 kts | 117° |
| 2026-04-20 04:03 | -29.88198 | -71.27978 | 1879 ft | 144 kts | 117° |
| 2026-04-20 04:03 | -29.88632 | -71.26965 | 1676 ft | 139 kts | 117° |
| 2026-04-20 04:04 | -29.89057 | -71.25976 | 1472 ft | 136 kts | 116° |
| 2026-04-20 04:04 | -29.89475 | -71.25005 | 1289 ft | 135 kts | 116° |
| 2026-04-20 04:04 | -29.89888 | -71.24044 | 1108 ft | 133 kts | 116° |
| 2026-04-20 04:04 | -29.90298 | -71.23090 | 927 ft | 132 kts | 116° |
| 2026-04-20 04:05 | -29.90704 | -71.22148 | 744 ft | 131 kts | 116° |
| 2026-04-20 04:05 | -29.91107 | -71.21213 | 571 ft | 130 kts | 116° |
| 2026-04-20 04:05 | -29.91493 | -71.20304 | 480 ft | 115 kts | 116° |
| 2026-04-20 04:05 | -29.91730 | -71.19748 | 477 ft | 33 kts | 116° |
| 2026-04-20 04:06 | -29.91802 | -71.19568 | 479 ft | 20 kts | 107° |
| 2026-04-20 04:06 | -29.91852 | -71.19488 | 479 ft | 10 kts | 141° |
| 2026-04-20 04:06 | -29.91852 | -71.19465 | 477 ft | 2 kts | 345° |
| 2026-04-20 04:06 | -29.91840 | -71.19490 | 475 ft | 5 kts | 295° |
| 2026-04-20 04:07 | -29.91820 | -71.19540 | 476 ft | 8 kts | 295° |
| 2026-04-20 04:07 | -29.91789 | -71.19614 | 474 ft | 12 kts | 296° |
| 2026-04-20 04:07 | -29.91747 | -71.19710 | 478 ft | 14 kts | 297° |
| 2026-04-20 04:07 | -29.91700 | -71.19816 | 473 ft | 15 kts | 297° |
| 2026-04-20 04:08 | -29.91653 | -71.19928 | 476 ft | 15 kts | 296° |
| 2026-04-20 04:08 | -29.91607 | -71.20039 | 476 ft | 16 kts | 296° |
| 2026-04-20 04:08 | -29.91602 | -71.20117 | 478 ft | 9 kts | 224° |
| 2026-04-20 04:08 | -29.91646 | -71.20143 | 480 ft | 6 kts | 206° |
| 2026-04-20 04:09 | -29.91679 | -71.20170 | 480 ft | 5 kts | 243° |
| 2026-04-20 04:09 | -29.91665 | -71.20208 | 478 ft | 5 kts | 303° |
| 2026-04-20 04:09 | -29.91646 | -71.20247 | 479 ft | 6 kts | 296° |
| 2026-04-20 04:09 | -29.91627 | -71.20290 | 474 ft | 6 kts | 296° |
| 2026-04-20 04:10 | -29.91608 | -71.20337 | 480 ft | 7 kts | 296° |
| 2026-04-20 04:10 | -29.91601 | -71.20383 | 480 ft | 6 kts | 230° |
| 2026-04-20 04:10 | -29.91616 | -71.20393 | 479 ft | 1 kts | 202° |
| 2026-04-20 04:10 | -29.91623 | -71.20396 | 480 ft | 1 kts | 202° |
| 2026-04-20 04:11 | -29.91635 | -71.20402 | 480 ft | 2 kts | 203° |